sensor_id;sensor_type;location;lat;lon;timestamp;P1;durP1;ratioP1;P2;durP2;ratioP2
9906;SDS011;4992;51.628;6.664;2022-10-16T00:00:56;6.00;;;3.28;;
9906;SDS011;4992;51.628;6.664;2022-10-16T00:03:22;3.65;;;3.22;;
9906;SDS011;4992;51.628;6.664;2022-10-16T00:05:48;6.32;;;3.05;;
9906;SDS011;4992;51.628;6.664;2022-10-16T00:08:13;9.02;;;3.28;;
9906;SDS011;4992;51.628;6.664;2022-10-16T00:10:39;5.07;;;2.40;;
9906;SDS011;4992;51.628;6.664;2022-10-16T00:13:05;10.32;;;3.47;;
9906;SDS011;4992;51.628;6.664;2022-10-16T00:15:37;3.97;;;2.88;;
9906;SDS011;4992;51.628;6.664;2022-10-16T00:18:04;3.80;;;2.45;;
9906;SDS011;4992;51.628;6.664;2022-10-16T00:20:30;4.88;;;2.97;;
9906;SDS011;4992;51.628;6.664;2022-10-16T00:22:59;4.70;;;2.67;;
9906;SDS011;4992;51.628;6.664;2022-10-16T00:25:24;4.53;;;2.70;;
9906;SDS011;4992;51.628;6.664;2022-10-16T00:27:49;6.50;;;3.08;;
9906;SDS011;4992;51.628;6.664;2022-10-16T00:30:15;7.35;;;3.40;;
9906;SDS011;4992;51.628;6.664;2022-10-16T00:32:41;3.92;;;2.65;;
9906;SDS011;4992;51.628;6.664;2022-10-16T00:35:06;5.88;;;2.80;;
9906;SDS011;4992;51.628;6.664;2022-10-16T00:37:32;4.25;;;2.85;;
9906;SDS011;4992;51.628;6.664;2022-10-16T00:39:57;6.75;;;3.08;;
9906;SDS011;4992;51.628;6.664;2022-10-16T00:42:23;3.85;;;2.50;;
9906;SDS011;4992;51.628;6.664;2022-10-16T00:44:52;3.63;;;2.40;;
9906;SDS011;4992;51.628;6.664;2022-10-16T00:47:34;4.03;;;2.75;;
9906;SDS011;4992;51.628;6.664;2022-10-16T00:52:36;7.18;;;2.80;;
9906;SDS011;4992;51.628;6.664;2022-10-16T00:55:04;5.68;;;2.70;;
9906;SDS011;4992;51.628;6.664;2022-10-16T00:57:30;4.40;;;2.80;;
9906;SDS011;4992;51.628;6.664;2022-10-16T00:59:56;6.45;;;3.10;;
9906;SDS011;4992;51.628;6.664;2022-10-16T01:02:22;8.82;;;2.72;;
9906;SDS011;4992;51.628;6.664;2022-10-16T01:04:49;2.65;;;2.45;;
9906;SDS011;4992;51.628;6.664;2022-10-16T01:15:22;6.78;;;2.33;;
9906;SDS011;4992;51.628;6.664;2022-10-16T01:17:53;2.50;;;2.28;;
9906;SDS011;4992;51.628;6.664;2022-10-16T01:25:27;4.72;;;2.58;;
9906;SDS011;4992;51.628;6.664;2022-10-16T01:28:13;3.20;;;2.15;;
9906;SDS011;4992;51.628;6.664;2022-10-16T01:30:42;4.03;;;2.40;;
9906;SDS011;4992;51.628;6.664;2022-10-16T01:33:11;3.65;;;2.50;;
9906;SDS011;4992;51.628;6.664;2022-10-16T01:36:03;4.22;;;2.40;;
9906;SDS011;4992;51.628;6.664;2022-10-16T01:38:36;3.50;;;2.30;;
9906;SDS011;4992;51.628;6.664;2022-10-16T01:41:10;4.28;;;2.35;;
9906;SDS011;4992;51.628;6.664;2022-10-16T01:43:46;4.35;;;2.60;;
9906;SDS011;4992;51.628;6.664;2022-10-16T01:46:16;4.95;;;2.25;;
9906;SDS011;4992;51.628;6.664;2022-10-16T01:48:45;3.55;;;2.38;;
9906;SDS011;4992;51.628;6.664;2022-10-16T01:51:12;5.25;;;2.47;;
9906;SDS011;4992;51.628;6.664;2022-10-16T01:53:40;2.70;;;2.22;;
9906;SDS011;4992;51.628;6.664;2022-10-16T01:56:08;3.95;;;2.15;;
9906;SDS011;4992;51.628;6.664;2022-10-16T01:58:38;6.47;;;2.28;;
9906;SDS011;4992;51.628;6.664;2022-10-16T02:01:10;2.88;;;1.90;;
9906;SDS011;4992;51.628;6.664;2022-10-16T02:03:38;4.80;;;2.45;;
9906;SDS011;4992;51.628;6.664;2022-10-16T02:06:07;2.10;;;1.90;;
9906;SDS011;4992;51.628;6.664;2022-10-16T02:08:33;4.45;;;1.98;;
9906;SDS011;4992;51.628;6.664;2022-10-16T02:11:00;2.97;;;2.03;;
9906;SDS011;4992;51.628;6.664;2022-10-16T02:13:37;3.47;;;2.00;;
9906;SDS011;4992;51.628;6.664;2022-10-16T02:16:07;3.75;;;1.83;;
9906;SDS011;4992;51.628;6.664;2022-10-16T02:18:34;2.72;;;1.70;;
9906;SDS011;4992;51.628;6.664;2022-10-16T02:23:55;5.70;;;1.63;;
9906;SDS011;4992;51.628;6.664;2022-10-16T02:29:11;4.50;;;1.50;;
9906;SDS011;4992;51.628;6.664;2022-10-16T02:31:41;1.40;;;1.30;;
9906;SDS011;4992;51.628;6.664;2022-10-16T02:34:10;2.92;;;1.63;;
9906;SDS011;4992;51.628;6.664;2022-10-16T02:36:37;3.45;;;1.60;;
9906;SDS011;4992;51.628;6.664;2022-10-16T02:39:04;4.15;;;1.75;;
9906;SDS011;4992;51.628;6.664;2022-10-16T02:41:31;6.05;;;1.58;;
9906;SDS011;4992;51.628;6.664;2022-10-16T02:43:57;2.15;;;1.40;;
9906;SDS011;4992;51.628;6.664;2022-10-16T02:46:22;1.50;;;1.40;;
9906;SDS011;4992;51.628;6.664;2022-10-16T02:48:48;4.55;;;1.60;;
9906;SDS011;4992;51.628;6.664;2022-10-16T02:51:13;4.90;;;1.60;;
9906;SDS011;4992;51.628;6.664;2022-10-16T02:53:39;2.58;;;1.73;;
9906;SDS011;4992;51.628;6.664;2022-10-16T02:56:04;3.15;;;1.42;;
9906;SDS011;4992;51.628;6.664;2022-10-16T02:58:30;2.88;;;1.35;;
9906;SDS011;4992;51.628;6.664;2022-10-16T03:00:56;2.90;;;1.63;;
9906;SDS011;4992;51.628;6.664;2022-10-16T03:03:21;1.55;;;1.25;;
9906;SDS011;4992;51.628;6.664;2022-10-16T03:05:47;2.05;;;1.58;;
9906;SDS011;4992;51.628;6.664;2022-10-16T03:08:13;5.28;;;1.40;;
9906;SDS011;4992;51.628;6.664;2022-10-16T03:10:38;2.83;;;1.90;;
9906;SDS011;4992;51.628;6.664;2022-10-16T03:13:04;1.63;;;1.40;;
9906;SDS011;4992;51.628;6.664;2022-10-16T03:15:30;2.13;;;1.52;;
9906;SDS011;4992;51.628;6.664;2022-10-16T03:17:58;1.63;;;1.52;;
9906;SDS011;4992;51.628;6.664;2022-10-16T03:20:24;3.67;;;1.58;;
9906;SDS011;4992;51.628;6.664;2022-10-16T03:22:50;3.47;;;1.48;;
9906;SDS011;4992;51.628;6.664;2022-10-16T03:25:15;3.25;;;1.48;;
9906;SDS011;4992;51.628;6.664;2022-10-16T03:27:41;1.40;;;1.30;;
9906;SDS011;4992;51.628;6.664;2022-10-16T03:30:06;1.70;;;1.48;;
9906;SDS011;4992;51.628;6.664;2022-10-16T03:32:32;4.10;;;1.35;;
9906;SDS011;4992;51.628;6.664;2022-10-16T03:34:58;4.10;;;1.83;;
9906;SDS011;4992;51.628;6.664;2022-10-16T03:37:23;1.65;;;1.30;;
9906;SDS011;4992;51.628;6.664;2022-10-16T03:39:49;3.95;;;1.40;;
9906;SDS011;4992;51.628;6.664;2022-10-16T03:42:14;6.57;;;1.27;;
9906;SDS011;4992;51.628;6.664;2022-10-16T03:44:40;1.95;;;1.33;;
9906;SDS011;4992;51.628;6.664;2022-10-16T03:47:06;1.80;;;1.10;;
9906;SDS011;4992;51.628;6.664;2022-10-16T03:49:31;1.60;;;1.00;;
9906;SDS011;4992;51.628;6.664;2022-10-16T03:51:57;2.35;;;0.90;;
9906;SDS011;4992;51.628;6.664;2022-10-16T03:54:22;2.97;;;1.00;;
9906;SDS011;4992;51.628;6.664;2022-10-16T03:56:48;3.25;;;1.20;;
9906;SDS011;4992;51.628;6.664;2022-10-16T03:59:13;1.17;;;1.05;;
9906;SDS011;4992;51.628;6.664;2022-10-16T04:01:39;2.47;;;0.95;;
9906;SDS011;4992;51.628;6.664;2022-10-16T04:04:05;2.10;;;1.42;;
9906;SDS011;4992;51.628;6.664;2022-10-16T04:06:30;2.15;;;0.80;;
9906;SDS011;4992;51.628;6.664;2022-10-16T04:08:56;1.85;;;0.73;;
9906;SDS011;4992;51.628;6.664;2022-10-16T04:11:22;1.58;;;0.90;;
9906;SDS011;4992;51.628;6.664;2022-10-16T04:13:47;2.20;;;0.85;;
9906;SDS011;4992;51.628;6.664;2022-10-16T04:16:13;2.13;;;0.85;;
9906;SDS011;4992;51.628;6.664;2022-10-16T04:18:39;1.98;;;0.70;;
9906;SDS011;4992;51.628;6.664;2022-10-16T04:21:04;2.58;;;0.93;;
9906;SDS011;4992;51.628;6.664;2022-10-16T04:23:31;3.75;;;0.70;;
9906;SDS011;4992;51.628;6.664;2022-10-16T04:25:57;2.03;;;0.90;;
9906;SDS011;4992;51.628;6.664;2022-10-16T04:28:22;1.45;;;0.70;;
9906;SDS011;4992;51.628;6.664;2022-10-16T04:30:48;1.15;;;0.75;;
9906;SDS011;4992;51.628;6.664;2022-10-16T04:33:13;1.48;;;0.57;;
9906;SDS011;4992;51.628;6.664;2022-10-16T04:35:39;1.73;;;0.65;;
9906;SDS011;4992;51.628;6.664;2022-10-16T04:38:04;2.47;;;0.82;;
9906;SDS011;4992;51.628;6.664;2022-10-16T04:40:30;0.75;;;0.75;;
9906;SDS011;4992;51.628;6.664;2022-10-16T04:43:01;1.65;;;1.38;;
9906;SDS011;4992;51.628;6.664;2022-10-16T04:45:29;3.15;;;0.70;;
9906;SDS011;4992;51.628;6.664;2022-10-16T04:47:58;1.05;;;0.65;;
9906;SDS011;4992;51.628;6.664;2022-10-16T04:50:24;2.22;;;0.80;;
9906;SDS011;4992;51.628;6.664;2022-10-16T04:52:50;3.00;;;0.70;;
9906;SDS011;4992;51.628;6.664;2022-10-16T04:55:15;2.50;;;0.65;;
9906;SDS011;4992;51.628;6.664;2022-10-16T04:57:41;0.95;;;0.70;;
9906;SDS011;4992;51.628;6.664;2022-10-16T05:00:07;0.60;;;0.60;;
9906;SDS011;4992;51.628;6.664;2022-10-16T05:02:33;1.25;;;0.70;;
9906;SDS011;4992;51.628;6.664;2022-10-16T05:04:59;2.00;;;0.77;;
9906;SDS011;4992;51.628;6.664;2022-10-16T05:07:24;0.90;;;0.90;;
9906;SDS011;4992;51.628;6.664;2022-10-16T05:09:50;3.05;;;0.80;;
9906;SDS011;4992;51.628;6.664;2022-10-16T05:12:15;2.15;;;0.70;;
9906;SDS011;4992;51.628;6.664;2022-10-16T05:14:41;1.48;;;0.80;;
9906;SDS011;4992;51.628;6.664;2022-10-16T05:17:06;4.93;;;1.05;;
9906;SDS011;4992;51.628;6.664;2022-10-16T05:19:32;0.85;;;0.70;;
9906;SDS011;4992;51.628;6.664;2022-10-16T05:21:58;0.70;;;0.70;;
9906;SDS011;4992;51.628;6.664;2022-10-16T05:24:23;1.13;;;0.80;;
9906;SDS011;4992;51.628;6.664;2022-10-16T05:26:49;2.85;;;0.95;;
9906;SDS011;4992;51.628;6.664;2022-10-16T05:29:15;1.05;;;0.90;;
9906;SDS011;4992;51.628;6.664;2022-10-16T05:31:40;2.75;;;0.70;;
9906;SDS011;4992;51.628;6.664;2022-10-16T05:34:06;1.63;;;0.90;;
9906;SDS011;4992;51.628;6.664;2022-10-16T05:36:31;1.38;;;0.80;;
9906;SDS011;4992;51.628;6.664;2022-10-16T05:38:57;2.42;;;0.88;;
9906;SDS011;4992;51.628;6.664;2022-10-16T05:41:22;1.23;;;0.60;;
9906;SDS011;4992;51.628;6.664;2022-10-16T05:43:50;5.55;;;0.80;;
9906;SDS011;4992;51.628;6.664;2022-10-16T05:46:16;1.77;;;0.70;;
9906;SDS011;4992;51.628;6.664;2022-10-16T05:48:42;1.83;;;0.85;;
9906;SDS011;4992;51.628;6.664;2022-10-16T05:51:09;3.05;;;1.23;;
9906;SDS011;4992;51.628;6.664;2022-10-16T05:53:37;1.38;;;0.80;;
9906;SDS011;4992;51.628;6.664;2022-10-16T05:56:03;1.60;;;0.85;;
9906;SDS011;4992;51.628;6.664;2022-10-16T05:58:31;1.33;;;0.85;;
9906;SDS011;4992;51.628;6.664;2022-10-16T06:01:00;0.70;;;0.70;;
9906;SDS011;4992;51.628;6.664;2022-10-16T06:03:28;0.80;;;0.80;;
9906;SDS011;4992;51.628;6.664;2022-10-16T06:05:54;2.35;;;1.00;;
9906;SDS011;4992;51.628;6.664;2022-10-16T06:08:20;0.88;;;0.80;;
9906;SDS011;4992;51.628;6.664;2022-10-16T06:10:47;1.30;;;1.08;;
9906;SDS011;4992;51.628;6.664;2022-10-16T06:13:13;2.10;;;1.05;;
9906;SDS011;4992;51.628;6.664;2022-10-16T06:15:40;2.40;;;0.80;;
9906;SDS011;4992;51.628;6.664;2022-10-16T06:18:07;1.60;;;1.00;;
9906;SDS011;4992;51.628;6.664;2022-10-16T06:20:34;0.98;;;0.95;;
9906;SDS011;4992;51.628;6.664;2022-10-16T06:23:00;2.80;;;1.00;;
9906;SDS011;4992;51.628;6.664;2022-10-16T06:25:25;8.93;;;1.30;;
9906;SDS011;4992;51.628;6.664;2022-10-16T06:27:51;1.55;;;0.90;;
9906;SDS011;4992;51.628;6.664;2022-10-16T06:30:16;1.63;;;1.00;;
9906;SDS011;4992;51.628;6.664;2022-10-16T06:32:42;4.32;;;1.27;;
9906;SDS011;4992;51.628;6.664;2022-10-16T06:35:07;2.40;;;1.15;;
9906;SDS011;4992;51.628;6.664;2022-10-16T06:37:33;2.28;;;1.10;;
9906;SDS011;4992;51.628;6.664;2022-10-16T06:39:59;1.52;;;1.15;;
9906;SDS011;4992;51.628;6.664;2022-10-16T06:42:25;2.45;;;1.40;;
9906;SDS011;4992;51.628;6.664;2022-10-16T06:44:50;1.67;;;1.20;;
9906;SDS011;4992;51.628;6.664;2022-10-16T06:47:16;4.35;;;1.42;;
9906;SDS011;4992;51.628;6.664;2022-10-16T06:49:41;4.25;;;1.30;;
9906;SDS011;4992;51.628;6.664;2022-10-16T06:52:07;2.25;;;1.42;;
9906;SDS011;4992;51.628;6.664;2022-10-16T06:54:32;2.60;;;1.10;;
9906;SDS011;4992;51.628;6.664;2022-10-16T06:56:58;1.65;;;1.40;;
9906;SDS011;4992;51.628;6.664;2022-10-16T06:59:24;5.32;;;1.35;;
9906;SDS011;4992;51.628;6.664;2022-10-16T07:01:50;2.45;;;1.52;;
9906;SDS011;4992;51.628;6.664;2022-10-16T07:04:15;3.55;;;1.55;;
9906;SDS011;4992;51.628;6.664;2022-10-16T07:06:41;2.15;;;1.60;;
9906;SDS011;4992;51.628;6.664;2022-10-16T07:09:08;2.88;;;1.35;;
9906;SDS011;4992;51.628;6.664;2022-10-16T07:11:34;5.15;;;1.42;;
9906;SDS011;4992;51.628;6.664;2022-10-16T07:14:02;2.83;;;1.17;;
9906;SDS011;4992;51.628;6.664;2022-10-16T07:16:28;2.78;;;1.55;;
9906;SDS011;4992;51.628;6.664;2022-10-16T07:18:56;1.63;;;1.50;;
9906;SDS011;4992;51.628;6.664;2022-10-16T07:21:24;3.72;;;2.00;;
9906;SDS011;4992;51.628;6.664;2022-10-16T07:23:59;1.90;;;1.80;;
9906;SDS011;4992;51.628;6.664;2022-10-16T07:26:26;2.83;;;1.40;;
9906;SDS011;4992;51.628;6.664;2022-10-16T07:28:54;2.50;;;1.58;;
9906;SDS011;4992;51.628;6.664;2022-10-16T07:31:20;2.08;;;1.77;;
9906;SDS011;4992;51.628;6.664;2022-10-16T07:33:47;2.13;;;1.85;;
9906;SDS011;4992;51.628;6.664;2022-10-16T07:36:14;2.13;;;1.45;;
9906;SDS011;4992;51.628;6.664;2022-10-16T07:38:41;2.08;;;1.50;;
9906;SDS011;4992;51.628;6.664;2022-10-16T07:41:08;2.60;;;1.83;;
9906;SDS011;4992;51.628;6.664;2022-10-16T07:43:36;2.25;;;1.90;;
9906;SDS011;4992;51.628;6.664;2022-10-16T07:46:02;3.33;;;1.70;;
9906;SDS011;4992;51.628;6.664;2022-10-16T07:48:28;3.03;;;1.70;;
9906;SDS011;4992;51.628;6.664;2022-10-16T07:50:59;2.03;;;1.80;;
9906;SDS011;4992;51.628;6.664;2022-10-16T07:53:29;3.15;;;2.03;;
9906;SDS011;4992;51.628;6.664;2022-10-16T07:55:58;1.45;;;1.35;;
9906;SDS011;4992;51.628;6.664;2022-10-16T07:58:25;4.72;;;1.63;;
9906;SDS011;4992;51.628;6.664;2022-10-16T08:00:52;3.15;;;1.80;;
9906;SDS011;4992;51.628;6.664;2022-10-16T08:03:18;2.63;;;1.58;;
9906;SDS011;4992;51.628;6.664;2022-10-16T08:05:43;1.67;;;1.50;;
9906;SDS011;4992;51.628;6.664;2022-10-16T08:08:15;2.47;;;1.55;;
9906;SDS011;4992;51.628;6.664;2022-10-16T08:10:42;3.38;;;1.60;;
9906;SDS011;4992;51.628;6.664;2022-10-16T08:13:08;3.13;;;2.05;;
9906;SDS011;4992;51.628;6.664;2022-10-16T08:15:34;3.40;;;1.95;;
9906;SDS011;4992;51.628;6.664;2022-10-16T08:18:01;2.45;;;2.25;;
9906;SDS011;4992;51.628;6.664;2022-10-16T08:20:28;3.83;;;3.25;;
9906;SDS011;4992;51.628;6.664;2022-10-16T08:22:55;2.78;;;2.58;;
9906;SDS011;4992;51.628;6.664;2022-10-16T08:25:21;4.32;;;2.72;;
9906;SDS011;4992;51.628;6.664;2022-10-16T08:27:47;4.13;;;1.90;;
9906;SDS011;4992;51.628;6.664;2022-10-16T08:30:13;3.05;;;2.10;;
9906;SDS011;4992;51.628;6.664;2022-10-16T08:32:39;2.65;;;2.30;;
9906;SDS011;4992;51.628;6.664;2022-10-16T08:35:06;2.88;;;2.10;;
9906;SDS011;4992;51.628;6.664;2022-10-16T08:37:34;3.92;;;2.40;;
9906;SDS011;4992;51.628;6.664;2022-10-16T08:39:59;2.22;;;1.95;;
9906;SDS011;4992;51.628;6.664;2022-10-16T08:42:47;2.75;;;2.20;;
9906;SDS011;4992;51.628;6.664;2022-10-16T08:45:23;3.00;;;2.10;;
9906;SDS011;4992;51.628;6.664;2022-10-16T08:48:30;5.88;;;1.95;;
9906;SDS011;4992;51.628;6.664;2022-10-16T08:51:06;2.58;;;1.30;;
9906;SDS011;4992;51.628;6.664;2022-10-16T08:53:43;2.88;;;1.60;;
9906;SDS011;4992;51.628;6.664;2022-10-16T08:56:13;3.15;;;1.85;;
9906;SDS011;4992;51.628;6.664;2022-10-16T08:58:39;3.13;;;1.10;;
9906;SDS011;4992;51.628;6.664;2022-10-16T09:01:09;4.10;;;0.98;;
9906;SDS011;4992;51.628;6.664;2022-10-16T09:06:21;4.28;;;1.30;;
9906;SDS011;4992;51.628;6.664;2022-10-16T09:11:26;2.15;;;0.98;;
9906;SDS011;4992;51.628;6.664;2022-10-16T09:17:00;2.67;;;1.13;;
9906;SDS011;4992;51.628;6.664;2022-10-16T09:19:42;2.30;;;0.70;;
9906;SDS011;4992;51.628;6.664;2022-10-16T09:22:14;3.97;;;0.80;;
9906;SDS011;4992;51.628;6.664;2022-10-16T09:24:41;3.63;;;0.70;;
9906;SDS011;4992;51.628;6.664;2022-10-16T09:27:11;1.60;;;0.73;;
9906;SDS011;4992;51.628;6.664;2022-10-16T09:29:38;8.27;;;1.00;;
9906;SDS011;4992;51.628;6.664;2022-10-16T09:32:11;5.93;;;0.90;;
9906;SDS011;4992;51.628;6.664;2022-10-16T09:34:42;4.63;;;1.50;;
9906;SDS011;4992;51.628;6.664;2022-10-16T09:37:12;1.70;;;1.10;;
9906;SDS011;4992;51.628;6.664;2022-10-16T09:39:43;2.85;;;0.80;;
9906;SDS011;4992;51.628;6.664;2022-10-16T09:42:15;1.02;;;0.65;;
9906;SDS011;4992;51.628;6.664;2022-10-16T09:44:48;2.17;;;0.90;;
9906;SDS011;4992;51.628;6.664;2022-10-16T09:47:19;2.92;;;0.80;;
9906;SDS011;4992;51.628;6.664;2022-10-16T09:49:51;0.88;;;0.80;;
9906;SDS011;4992;51.628;6.664;2022-10-16T09:52:18;1.13;;;0.70;;
9906;SDS011;4992;51.628;6.664;2022-10-16T09:54:54;1.35;;;0.68;;
9906;SDS011;4992;51.628;6.664;2022-10-16T09:57:49;0.85;;;0.60;;
9906;SDS011;4992;51.628;6.664;2022-10-16T10:00:16;3.20;;;0.85;;
9906;SDS011;4992;51.628;6.664;2022-10-16T10:02:43;1.42;;;0.70;;
9906;SDS011;4992;51.628;6.664;2022-10-16T10:05:25;1.25;;;0.70;;
9906;SDS011;4992;51.628;6.664;2022-10-16T10:07:56;1.75;;;0.63;;
9906;SDS011;4992;51.628;6.664;2022-10-16T10:10:34;3.00;;;0.80;;
9906;SDS011;4992;51.628;6.664;2022-10-16T10:16:01;2.88;;;0.90;;
9906;SDS011;4992;51.628;6.664;2022-10-16T10:18:27;1.40;;;0.70;;
9906;SDS011;4992;51.628;6.664;2022-10-16T10:20:59;1.17;;;0.57;;
9906;SDS011;4992;51.628;6.664;2022-10-16T10:23:26;2.17;;;0.80;;
9906;SDS011;4992;51.628;6.664;2022-10-16T10:31:39;3.10;;;0.55;;
9906;SDS011;4992;51.628;6.664;2022-10-16T10:34:41;1.98;;;0.70;;
9906;SDS011;4992;51.628;6.664;2022-10-16T10:37:20;1.95;;;1.17;;
9906;SDS011;4992;51.628;6.664;2022-10-16T10:39:58;1.80;;;0.60;;
9906;SDS011;4992;51.628;6.664;2022-10-16T10:45:41;1.95;;;0.63;;
9906;SDS011;4992;51.628;6.664;2022-10-16T10:51:08;3.17;;;0.70;;
9906;SDS011;4992;51.628;6.664;2022-10-16T10:53:42;2.40;;;0.80;;
9906;SDS011;4992;51.628;6.664;2022-10-16T10:56:20;2.70;;;0.75;;
9906;SDS011;4992;51.628;6.664;2022-10-16T10:59:02;2.17;;;0.65;;
9906;SDS011;4992;51.628;6.664;2022-10-16T11:01:41;8.35;;;0.93;;
9906;SDS011;4992;51.628;6.664;2022-10-16T11:09:52;3.45;;;0.70;;
9906;SDS011;4992;51.628;6.664;2022-10-16T11:12:20;2.28;;;0.50;;
9906;SDS011;4992;51.628;6.664;2022-10-16T11:17:31;2.47;;;0.60;;
9906;SDS011;4992;51.628;6.664;2022-10-16T11:22:44;3.40;;;1.30;;
9906;SDS011;4992;51.628;6.664;2022-10-16T11:27:40;3.13;;;0.77;;
9906;SDS011;4992;51.628;6.664;2022-10-16T11:30:16;6.20;;;1.45;;
9906;SDS011;4992;51.628;6.664;2022-10-16T11:43:46;5.07;;;0.60;;
9906;SDS011;4992;51.628;6.664;2022-10-16T11:46:23;3.67;;;0.65;;
9906;SDS011;4992;51.628;6.664;2022-10-16T11:49:08;2.20;;;0.75;;
9906;SDS011;4992;51.628;6.664;2022-10-16T11:52:03;2.00;;;0.60;;
9906;SDS011;4992;51.628;6.664;2022-10-16T11:54:49;3.33;;;0.80;;
9906;SDS011;4992;51.628;6.664;2022-10-16T11:57:23;1.83;;;0.50;;
9906;SDS011;4992;51.628;6.664;2022-10-16T11:59:54;3.17;;;0.88;;
9906;SDS011;4992;51.628;6.664;2022-10-16T12:02:35;2.80;;;0.93;;
9906;SDS011;4992;51.628;6.664;2022-10-16T12:08:06;2.05;;;0.60;;
9906;SDS011;4992;51.628;6.664;2022-10-16T12:10:36;2.25;;;0.77;;
9906;SDS011;4992;51.628;6.664;2022-10-16T12:15:39;2.67;;;0.60;;
9906;SDS011;4992;51.628;6.664;2022-10-16T12:18:07;1.42;;;0.50;;
9906;SDS011;4992;51.628;6.664;2022-10-16T12:20:53;4.75;;;0.85;;
9906;SDS011;4992;51.628;6.664;2022-10-16T12:23:25;2.90;;;0.80;;
9906;SDS011;4992;51.628;6.664;2022-10-16T12:25:54;5.10;;;0.60;;
9906;SDS011;4992;51.628;6.664;2022-10-16T12:28:22;4.97;;;0.88;;
9906;SDS011;4992;51.628;6.664;2022-10-16T12:30:55;3.15;;;0.50;;
9906;SDS011;4992;51.628;6.664;2022-10-16T12:33:27;2.33;;;0.57;;
9906;SDS011;4992;51.628;6.664;2022-10-16T12:35:55;2.40;;;0.52;;
9906;SDS011;4992;51.628;6.664;2022-10-16T12:41:02;1.98;;;0.90;;
9906;SDS011;4992;51.628;6.664;2022-10-16T12:43:37;4.10;;;0.65;;
9906;SDS011;4992;51.628;6.664;2022-10-16T12:46:18;2.22;;;0.68;;
9906;SDS011;4992;51.628;6.664;2022-10-16T12:51:44;2.00;;;0.60;;
9906;SDS011;4992;51.628;6.664;2022-10-16T12:59:48;3.95;;;0.82;;
9906;SDS011;4992;51.628;6.664;2022-10-16T13:05:18;2.47;;;0.45;;
9906;SDS011;4992;51.628;6.664;2022-10-16T13:13:13;1.50;;;0.52;;
9906;SDS011;4992;51.628;6.664;2022-10-16T13:29:30;1.63;;;0.32;;
9906;SDS011;4992;51.628;6.664;2022-10-16T13:31:57;2.88;;;0.50;;
9906;SDS011;4992;51.628;6.664;2022-10-16T13:34:25;0.85;;;0.40;;
9906;SDS011;4992;51.628;6.664;2022-10-16T13:36:52;0.85;;;0.40;;
9906;SDS011;4992;51.628;6.664;2022-10-16T13:39:25;1.75;;;0.70;;
9906;SDS011;4992;51.628;6.664;2022-10-16T13:42:10;2.25;;;0.68;;
9906;SDS011;4992;51.628;6.664;2022-10-16T13:44:46;1.15;;;0.63;;
9906;SDS011;4992;51.628;6.664;2022-10-16T13:47:17;0.40;;;0.40;;
9906;SDS011;4992;51.628;6.664;2022-10-16T13:49:45;1.20;;;0.40;;
9906;SDS011;4992;51.628;6.664;2022-10-16T13:52:20;1.77;;;0.30;;
9906;SDS011;4992;51.628;6.664;2022-10-16T13:54:46;1.48;;;0.50;;
9906;SDS011;4992;51.628;6.664;2022-10-16T13:57:16;1.42;;;0.43;;
9906;SDS011;4992;51.628;6.664;2022-10-16T13:59:42;0.90;;;0.30;;
9906;SDS011;4992;51.628;6.664;2022-10-16T14:02:14;1.08;;;0.30;;
9906;SDS011;4992;51.628;6.664;2022-10-16T14:04:44;1.75;;;0.70;;
9906;SDS011;4992;51.628;6.664;2022-10-16T14:07:13;2.15;;;0.30;;
9906;SDS011;4992;51.628;6.664;2022-10-16T14:09:41;1.13;;;0.40;;
9906;SDS011;4992;51.628;6.664;2022-10-16T14:12:10;2.13;;;0.30;;
9906;SDS011;4992;51.628;6.664;2022-10-16T14:14:40;1.88;;;0.38;;
9906;SDS011;4992;51.628;6.664;2022-10-16T14:17:48;2.83;;;0.45;;
9906;SDS011;4992;51.628;6.664;2022-10-16T14:20:03;1.33;;;0.40;;
9906;SDS011;4992;51.628;6.664;2022-10-16T14:22:40;1.77;;;0.45;;
9906;SDS011;4992;51.628;6.664;2022-10-16T14:27:44;2.92;;;0.60;;
9906;SDS011;4992;51.628;6.664;2022-10-16T14:33:01;0.95;;;0.40;;
9906;SDS011;4992;51.628;6.664;2022-10-16T14:35:29;2.03;;;0.40;;
9906;SDS011;4992;51.628;6.664;2022-10-16T14:38:00;2.05;;;0.55;;
9906;SDS011;4992;51.628;6.664;2022-10-16T14:40:29;2.35;;;0.30;;
9906;SDS011;4992;51.628;6.664;2022-10-16T14:43:03;1.58;;;0.40;;
9906;SDS011;4992;51.628;6.664;2022-10-16T14:45:31;1.00;;;0.40;;
9906;SDS011;4992;51.628;6.664;2022-10-16T14:47:59;1.05;;;0.47;;
9906;SDS011;4992;51.628;6.664;2022-10-16T14:50:31;2.90;;;0.63;;
9906;SDS011;4992;51.628;6.664;2022-10-16T14:52:56;1.27;;;0.43;;
9906;SDS011;4992;51.628;6.664;2022-10-16T14:55:23;1.55;;;0.60;;
9906;SDS011;4992;51.628;6.664;2022-10-16T14:57:50;2.58;;;0.68;;
9906;SDS011;4992;51.628;6.664;2022-10-16T15:00:17;4.13;;;0.60;;
9906;SDS011;4992;51.628;6.664;2022-10-16T15:02:48;1.10;;;0.50;;
9906;SDS011;4992;51.628;6.664;2022-10-16T15:05:19;1.65;;;0.40;;
9906;SDS011;4992;51.628;6.664;2022-10-16T15:07:47;1.27;;;0.50;;
9906;SDS011;4992;51.628;6.664;2022-10-16T15:10:14;1.27;;;0.57;;
9906;SDS011;4992;51.628;6.664;2022-10-16T15:12:41;0.70;;;0.60;;
9906;SDS011;4992;51.628;6.664;2022-10-16T15:15:49;1.13;;;0.63;;
9906;SDS011;4992;51.628;6.664;2022-10-16T15:18:03;1.35;;;0.65;;
9906;SDS011;4992;51.628;6.664;2022-10-16T15:20:30;2.55;;;0.88;;
9906;SDS011;4992;51.628;6.664;2022-10-16T15:23:02;1.75;;;0.68;;
9906;SDS011;4992;51.628;6.664;2022-10-16T15:25:48;2.67;;;1.17;;
9906;SDS011;4992;51.628;6.664;2022-10-16T15:28:14;1.85;;;1.13;;
9906;SDS011;4992;51.628;6.664;2022-10-16T15:30:41;2.03;;;1.25;;
9906;SDS011;4992;51.628;6.664;2022-10-16T15:33:14;1.45;;;0.50;;
9906;SDS011;4992;51.628;6.664;2022-10-16T15:35:49;2.55;;;0.95;;
9906;SDS011;4992;51.628;6.664;2022-10-16T15:38:16;3.95;;;0.63;;
9906;SDS011;4992;51.628;6.664;2022-10-16T15:40:43;1.02;;;0.57;;
9906;SDS011;4992;51.628;6.664;2022-10-16T15:43:09;3.40;;;0.40;;
9906;SDS011;4992;51.628;6.664;2022-10-16T15:45:36;1.75;;;0.55;;
9906;SDS011;4992;51.628;6.664;2022-10-16T15:48:02;2.15;;;0.60;;
9906;SDS011;4992;51.628;6.664;2022-10-16T15:50:28;1.58;;;0.73;;
9906;SDS011;4992;51.628;6.664;2022-10-16T15:52:54;3.00;;;0.88;;
9906;SDS011;4992;51.628;6.664;2022-10-16T15:55:20;3.83;;;0.90;;
9906;SDS011;4992;51.628;6.664;2022-10-16T15:57:46;4.05;;;1.02;;
9906;SDS011;4992;51.628;6.664;2022-10-16T16:00:13;0.95;;;0.75;;
9906;SDS011;4992;51.628;6.664;2022-10-16T16:02:41;1.50;;;0.80;;
9906;SDS011;4992;51.628;6.664;2022-10-16T16:05:08;2.30;;;0.98;;
9906;SDS011;4992;51.628;6.664;2022-10-16T16:07:35;2.15;;;0.82;;
9906;SDS011;4992;51.628;6.664;2022-10-16T16:10:03;4.25;;;1.73;;
9906;SDS011;4992;51.628;6.664;2022-10-16T16:12:30;4.20;;;1.45;;
9906;SDS011;4992;51.628;6.664;2022-10-16T16:14:55;3.80;;;1.55;;
9906;SDS011;4992;51.628;6.664;2022-10-16T16:17:21;2.75;;;1.60;;
9906;SDS011;4992;51.628;6.664;2022-10-16T16:19:47;3.83;;;2.15;;
9906;SDS011;4992;51.628;6.664;2022-10-16T16:22:12;4.38;;;1.60;;
9906;SDS011;4992;51.628;6.664;2022-10-16T16:24:38;2.85;;;1.15;;
9906;SDS011;4992;51.628;6.664;2022-10-16T16:27:03;6.68;;;1.65;;
9906;SDS011;4992;51.628;6.664;2022-10-16T16:29:29;2.97;;;1.15;;
9906;SDS011;4992;51.628;6.664;2022-10-16T16:31:54;3.45;;;1.33;;
9906;SDS011;4992;51.628;6.664;2022-10-16T16:34:23;1.27;;;0.88;;
9906;SDS011;4992;51.628;6.664;2022-10-16T16:36:49;2.30;;;1.02;;
9906;SDS011;4992;51.628;6.664;2022-10-16T16:39:15;3.35;;;0.90;;
9906;SDS011;4992;51.628;6.664;2022-10-16T16:41:41;3.60;;;1.60;;
9906;SDS011;4992;51.628;6.664;2022-10-16T16:44:08;1.98;;;1.40;;
9906;SDS011;4992;51.628;6.664;2022-10-16T16:46:35;3.70;;;1.38;;
9906;SDS011;4992;51.628;6.664;2022-10-16T16:49:02;4.03;;;1.40;;
9906;SDS011;4992;51.628;6.664;2022-10-16T16:51:28;1.90;;;1.30;;
9906;SDS011;4992;51.628;6.664;2022-10-16T16:53:54;2.90;;;1.17;;
9906;SDS011;4992;51.628;6.664;2022-10-16T16:56:20;6.88;;;2.08;;
9906;SDS011;4992;51.628;6.664;2022-10-16T16:58:48;6.18;;;1.70;;
9906;SDS011;4992;51.628;6.664;2022-10-16T17:01:14;5.10;;;1.88;;
9906;SDS011;4992;51.628;6.664;2022-10-16T17:03:41;1.77;;;1.65;;
9906;SDS011;4992;51.628;6.664;2022-10-16T17:06:11;4.97;;;2.00;;
9906;SDS011;4992;51.628;6.664;2022-10-16T17:08:39;3.53;;;1.90;;
9906;SDS011;4992;51.628;6.664;2022-10-16T17:11:05;5.53;;;2.42;;
9906;SDS011;4992;51.628;6.664;2022-10-16T17:13:36;4.10;;;1.63;;
9906;SDS011;4992;51.628;6.664;2022-10-16T17:16:02;2.47;;;1.70;;
9906;SDS011;4992;51.628;6.664;2022-10-16T17:18:29;4.53;;;1.52;;